Time;durP1;ratioP1;P1;durP2;ratioP2;P2;SDS_P1;SDS_P2;PMS_P1;PMS_P2;Temp;Humidity;BMP_temperature;BMP_pressure;BME280_temperature;BME280_humidity;BME280_pressure;Samples;Min_cycle;Max_cycle;Signal;HPM_P1;HPM_P2
2021/10/22 00:01:26;;;;;;;1.85;1.70;;;7.60;99.90;;;;;;5041065;28;20694;-77
2021/10/22 00:03:53;;;;;;;2.42;1.55;;;7.60;99.90;;;;;;5040717;28;20226;-78
2021/10/22 00:06:20;;;;;;;3.05;1.58;;;7.60;99.90;;;;;;5057849;28;20186;-77
2021/10/22 00:08:47;;;;;;;1.60;1.50;;;7.60;99.90;;;;;;5055309;28;20247;-77
2021/10/22 00:11:13;;;;;;;3.25;1.60;;;7.50;99.90;;;;;;5052729;28;20211;-77
2021/10/22 00:13:40;;;;;;;1.85;1.75;;;7.50;99.90;;;;;;5039302;28;20642;-77
2021/10/22 00:16:08;;;;;;;3.47;2.10;;;7.50;99.90;;;;;;5042653;28;20199;-77
2021/10/22 00:18:35;;;;;;;2.28;2.05;;;7.50;99.90;;;;;;5048529;28;20211;-77
2021/10/22 00:21:02;;;;;;;3.97;2.15;;;7.50;99.90;;;;;;5039646;28;20207;-77
2021/10/22 00:23:29;;;;;;;3.65;1.90;;;7.50;99.90;;;;;;5039274;28;20215;-77
2021/10/22 00:25:56;;;;;;;5.38;2.15;;;7.40;99.90;;;;;;5040396;28;20716;-78
2021/10/22 00:28:23;;;;;;;4.80;2.10;;;7.40;99.90;;;;;;5020642;28;20299;-78
2021/10/22 00:30:50;;;;;;;6.88;2.17;;;7.40;99.90;;;;;;5018681;28;20294;-78
2021/10/22 00:33:18;;;;;;;4.93;2.25;;;7.30;99.90;;;;;;5036625;28;20245;-79
2021/10/22 00:35:45;;;;;;;3.00;2.25;;;7.30;99.90;;;;;;5035736;28;20217;-79
2021/10/22 00:38:12;;;;;;;2.97;1.98;;;7.30;99.90;;;;;;5037055;28;20219;-79
2021/10/22 00:40:39;;;;;;;5.18;2.20;;;7.30;99.90;;;;;;5036026;28;20237;-78
2021/10/22 00:43:07;;;;;;;4.18;2.35;;;7.30;99.90;;;;;;5036667;28;20271;-79
2021/10/22 00:45:34;;;;;;;2.85;2.00;;;7.40;99.90;;;;;;5040200;28;20210;-79
2021/10/22 00:48:01;;;;;;;5.47;2.92;;;7.40;99.90;;;;;;5040194;28;20573;-80
2021/10/22 00:50:29;;;;;;;3.45;2.42;;;7.50;99.90;;;;;;5055948;23;20425;-78
2021/10/22 00:52:56;;;;;;;2.65;2.30;;;7.40;99.90;;;;;;5035357;28;20226;-78
2021/10/22 00:55:23;;;;;;;3.17;2.40;;;7.40;99.90;;;;;;5035716;28;20238;-78
2021/10/22 00:57:50;;;;;;;2.92;2.50;;;7.30;99.90;;;;;;5035097;28;20580;-78
2021/10/22 01:00:17;;;;;;;2.65;2.30;;;7.20;99.90;;;;;;5034657;28;20227;-79
2021/10/22 01:02:44;;;;;;;3.35;2.20;;;7.30;99.90;;;;;;5035660;28;20203;-79
2021/10/22 01:05:15;;;;;;;2.50;2.30;;;7.20;99.90;;;;;;5035358;28;20227;-79
2021/10/22 01:07:44;;;;;;;2.30;1.83;;;7.10;99.90;;;;;;5037286;28;20195;-79
2021/10/22 01:10:13;;;;;;;3.00;2.50;;;7.10;99.90;;;;;;5054667;28;20294;-78
2021/10/22 01:12:41;;;;;;;3.10;2.60;;;7.00;99.90;;;;;;5055285;28;20207;-80
2021/10/22 01:15:09;;;;;;;9.52;2.42;;;7.00;99.90;;;;;;5051470;28;20243;-78
2021/10/22 01:17:39;;;;;;;3.50;1.80;;;7.10;99.90;;;;;;5036449;28;20206;-77
2021/10/22 01:20:08;;;;;;;5.65;2.45;;;7.10;99.90;;;;;;5036546;28;20757;-79
2021/10/22 01:22:40;;;;;;;3.20;2.13;;;7.10;99.90;;;;;;5036217;28;20218;-79
2021/10/22 01:25:08;;;;;;;3.58;2.55;;;7.10;99.90;;;;;;5042671;28;20227;-77
2021/10/22 01:27:35;;;;;;;3.40;2.40;;;7.10;99.90;;;;;;5044252;28;20271;-77
2021/10/22 01:30:03;;;;;;;2.10;2.00;;;7.10;99.90;;;;;;5040944;28;20737;-76
2021/10/22 01:32:30;;;;;;;3.72;2.30;;;7.10;99.90;;;;;;5034164;28;20691;-77
2021/10/22 01:34:57;;;;;;;2.95;2.60;;;7.00;99.90;;;;;;5034017;28;20205;-77
2021/10/22 01:37:24;;;;;;;8.10;2.55;;;7.00;99.90;;;;;;5034155;28;20293;-77
2021/10/22 01:39:52;;;;;;;3.33;2.55;;;6.90;99.90;;;;;;5033754;28;20237;-76
2021/10/22 01:42:19;;;;;;;3.45;2.30;;;6.80;99.90;;;;;;5034723;28;20210;-76
2021/10/22 01:44:46;;;;;;;2.50;2.22;;;6.80;99.90;;;;;;5033757;28;20272;-76
2021/10/22 01:47:13;;;;;;;3.70;2.90;;;6.80;99.90;;;;;;5033894;28;20722;-76
2021/10/22 01:49:40;;;;;;;2.90;2.60;;;6.70;99.90;;;;;;5033326;28;20259;-76
2021/10/22 01:52:07;;;;;;;4.95;2.30;;;6.70;99.90;;;;;;5034072;28;20213;-77
2021/10/22 01:54:34;;;;;;;3.95;2.78;;;6.70;99.90;;;;;;5033992;28;20223;-77
2021/10/22 01:57:03;;;;;;;2.78;2.30;;;6.70;99.90;;;;;;5033709;28;20225;-77
2021/10/22 01:59:30;;;;;;;2.55;2.22;;;6.70;99.90;;;;;;5033105;28;20626;-77
2021/10/22 02:01:57;;;;;;;4.45;2.60;;;6.70;99.90;;;;;;5034365;28;20234;-76
2021/10/22 02:04:24;;;;;;;3.13;2.42;;;6.70;99.90;;;;;;5035061;28;20590;-76
2021/10/22 02:06:51;;;;;;;3.13;2.47;;;6.60;99.90;;;;;;5035504;28;20207;-76
2021/10/22 02:09:19;;;;;;;2.30;2.10;;;6.60;99.90;;;;;;5038435;28;20237;-77
2021/10/22 02:11:46;;;;;;;5.38;2.70;;;6.70;99.90;;;;;;5039704;28;20211;-77
2021/10/22 02:14:15;;;;;;;5.68;2.85;;;6.70;99.90;;;;;;5038727;28;20203;-77
2021/10/22 02:16:42;;;;;;;2.90;2.65;;;6.70;99.90;;;;;;5040470;28;20202;-77
2021/10/22 02:19:09;;;;;;;2.97;2.67;;;6.60;99.90;;;;;;5039917;28;20219;-77
2021/10/22 02:21:36;;;;;;;4.55;2.85;;;6.60;99.90;;;;;;5039785;28;20273;-77
2021/10/22 02:24:03;;;;;;;3.53;2.75;;;6.60;99.90;;;;;;5037507;28;20219;-77
2021/10/22 02:26:30;;;;;;;3.35;2.90;;;6.60;99.90;;;;;;5039411;28;20218;-77
2021/10/22 02:28:57;;;;;;;4.03;3.25;;;6.60;99.90;;;;;;5038846;28;20297;-77
2021/10/22 02:31:26;;;;;;;6.20;3.10;;;6.60;99.90;;;;;;5035010;28;20298;-78
2021/10/22 02:33:52;;;;;;;5.22;2.92;;;6.60;99.90;;;;;;5035142;28;20238;-78
2021/10/22 02:36:21;;;;;;;3.20;2.90;;;6.60;99.90;;;;;;5034681;28;20211;-78
2021/10/22 02:38:48;;;;;;;5.22;3.45;;;6.60;99.90;;;;;;5034063;28;20217;-77
2021/10/22 02:41:15;;;;;;;5.05;3.38;;;6.60;99.90;;;;;;5034204;28;20211;-77
2021/10/22 02:43:42;;;;;;;5.40;3.08;;;6.70;99.90;;;;;;5034979;28;20211;-77
2021/10/22 02:46:09;;;;;;;6.53;3.08;;;6.70;99.90;;;;;;5042431;28;20224;-76
2021/10/22 02:48:38;;;;;;;3.47;2.95;;;6.60;99.90;;;;;;5034118;28;20271;-76
2021/10/22 02:51:05;;;;;;;4.25;3.38;;;6.50;99.90;;;;;;5034702;28;20221;-77
2021/10/22 02:53:32;;;;;;;5.40;3.17;;;6.40;99.90;;;;;;5037782;28;20542;-77
2021/10/22 02:55:58;;;;;;;14.38;4.30;;;6.40;99.90;;;;;;5033508;28;20198;-77
2021/10/22 02:58:25;;;;;;;3.85;3.33;;;6.50;99.90;;;;;;5033883;28;20584;-77
2021/10/22 03:00:52;;;;;;;6.82;3.45;;;6.50;99.90;;;;;;5034312;28;20230;-77
2021/10/22 03:03:19;;;;;;;6.25;3.53;;;6.40;99.90;;;;;;5035142;28;20242;-77
2021/10/22 03:05:47;;;;;;;4.85;3.72;;;6.40;99.90;;;;;;5014741;28;20237;-77
2021/10/22 03:08:14;;;;;;;4.63;3.30;;;6.50;99.90;;;;;;5033477;28;20213;-76
2021/10/22 03:10:41;;;;;;;4.10;3.50;;;6.50;99.90;;;;;;5034779;28;20324;-76
2021/10/22 03:13:08;;;;;;;5.60;3.78;;;6.50;99.90;;;;;;5034012;28;20315;-76
2021/10/22 03:15:35;;;;;;;5.93;3.42;;;6.50;99.90;;;;;;5033948;28;20198;-77
2021/10/22 03:18:02;;;;;;;3.22;2.92;;;6.40;99.90;;;;;;5033518;28;20218;-77
2021/10/22 03:20:28;;;;;;;4.03;3.15;;;6.40;99.90;;;;;;5032227;28;20644;-77
2021/10/22 03:22:57;;;;;;;4.95;3.67;;;6.30;99.90;;;;;;5032976;28;20213;-77
2021/10/22 03:25:24;;;;;;;9.85;3.40;;;6.20;99.90;;;;;;5033539;28;20264;-77
2021/10/22 03:27:52;;;;;;;5.97;3.20;;;6.30;99.90;;;;;;5033384;28;20275;-77
2021/10/22 03:30:19;;;;;;;6.07;3.13;;;6.30;99.90;;;;;;5034249;28;20600;-77
2021/10/22 03:32:46;;;;;;;5.28;3.50;;;6.20;99.90;;;;;;5037589;28;20293;-76
2021/10/22 03:35:13;;;;;;;4.60;3.70;;;6.20;99.90;;;;;;5037272;28;20207;-80
2021/10/22 03:37:40;;;;;;;3.67;3.30;;;6.20;99.90;;;;;;5033775;28;20751;-77
2021/10/22 03:40:10;;;;;;;4.97;3.20;;;6.10;99.90;;;;;;5032576;28;20325;-76
2021/10/22 03:42:37;;;;;;;6.53;3.42;;;6.10;99.90;;;;;;5032827;28;20203;-77
2021/10/22 03:45:05;;;;;;;5.93;3.05;;;6.20;99.90;;;;;;5036887;28;20237;-77
2021/10/22 03:47:32;;;;;;;5.82;3.60;;;6.00;99.90;;;;;;5038095;28;20223;-78
2021/10/22 03:49:59;;;;;;;7.68;4.05;;;6.00;99.90;;;;;;5037700;28;20637;-78
2021/10/22 03:52:26;;;;;;;10.55;3.40;;;6.10;99.90;;;;;;5038104;28;20688;-78
2021/10/22 03:54:53;;;;;;;8.68;3.97;;;6.10;99.90;;;;;;5038329;28;20282;-78
2021/10/22 03:57:21;;;;;;;7.00;4.10;;;6.10;99.90;;;;;;5037527;28;20668;-78
2021/10/22 03:59:48;;;;;;;6.35;4.25;;;6.10;99.90;;;;;;5037901;28;20318;-78
2021/10/22 04:02:15;;;;;;;9.63;3.97;;;6.10;99.90;;;;;;5039007;28;20279;-77
2021/10/22 04:04:42;;;;;;;5.13;3.30;;;6.10;99.90;;;;;;5038932;28;20728;-77
2021/10/22 04:07:10;;;;;;;7.53;4.13;;;6.10;99.90;;;;;;5036517;28;20301;-77
2021/10/22 04:09:37;;;;;;;7.00;3.88;;;6.10;99.90;;;;;;5035714;28;20230;-77
2021/10/22 04:12:04;;;;;;;4.38;3.53;;;6.20;99.90;;;;;;5035899;28;20238;-77
2021/10/22 04:14:32;;;;;;;6.20;3.83;;;6.10;99.90;;;;;;5023943;28;20217;-78
2021/10/22 04:16:59;;;;;;;8.02;4.03;;;6.10;99.90;;;;;;5035658;28;20637;-78
2021/10/22 04:19:26;;;;;;;4.57;4.13;;;6.10;99.90;;;;;;5032513;28;20226;-78
2021/10/22 04:21:54;;;;;;;3.90;3.20;;;6.00;99.90;;;;;;5016823;28;20207;-78
2021/10/22 04:24:22;;;;;;;9.20;3.88;;;6.00;99.90;;;;;;5017516;28;20577;-77
2021/10/22 04:26:50;;;;;;;6.38;4.05;;;6.00;99.90;;;;;;5034172;28;20206;-77
2021/10/22 04:29:17;;;;;;;6.97;4.00;;;5.90;99.90;;;;;;5037908;28;20279;-77
2021/10/22 04:31:46;;;;;;;6.88;3.72;;;6.00;99.90;;;;;;5037266;28;20210;-77
2021/10/22 04:34:14;;;;;;;8.93;4.00;;;6.00;99.90;;;;;;5037816;28;20233;-77
2021/10/22 04:36:42;;;;;;;9.43;3.85;;;6.00;99.90;;;;;;5036378;28;20220;-77
2021/10/22 04:42:00;;;;;;;5.35;4.05;;;5.90;99.90;;;;;;5018424;28;20199;-78
2021/10/22 04:44:29;;;;;;;8.63;3.45;;;5.90;99.90;;;;;;5039959;28;20230;-77
2021/10/22 04:46:58;;;;;;;5.82;4.15;;;5.80;99.90;;;;;;5037510;28;20642;-77
2021/10/22 04:49:25;;;;;;;8.43;4.90;;;5.90;99.90;;;;;;5051306;28;20304;-78
2021/10/22 04:51:52;;;;;;;7.70;4.13;;;5.90;99.90;;;;;;5054237;28;20198;-77
2021/10/22 04:54:19;;;;;;;5.60;4.88;;;5.90;99.90;;;;;;5052963;28;20233;-78
2021/10/22 04:56:46;;;;;;;6.57;5.15;;;5.90;99.90;;;;;;5054146;28;20269;-79
2021/10/22 04:59:12;;;;;;;7.25;4.97;;;5.90;99.90;;;;;;5058776;28;20238;-79
2021/10/22 05:01:39;;;;;;;7.18;4.90;;;5.90;99.90;;;;;;5056061;28;20199;-78
2021/10/22 05:04:07;;;;;;;9.95;5.97;;;5.90;99.90;;;;;;5049542;28;20217;-77
2021/10/22 05:06:34;;;;;;;7.88;5.65;;;6.00;99.90;;;;;;5038826;28;20697;-78
2021/10/22 05:09:01;;;;;;;8.32;5.35;;;6.00;99.90;;;;;;5040296;28;20279;-79
2021/10/22 05:11:28;;;;;;;9.43;6.05;;;5.90;99.90;;;;;;5040441;28;20245;-77
2021/10/22 05:13:55;;;;;;;6.40;5.22;;;5.90;99.90;;;;;;5043226;28;20219;-78
2021/10/22 05:16:23;;;;;;;10.20;6.55;;;5.90;99.90;;;;;;5041502;28;20203;-77
2021/10/22 05:18:49;;;;;;;9.38;6.22;;;5.80;99.90;;;;;;5036407;28;20255;-77
2021/10/22 05:21:18;;;;;;;15.52;6.38;;;5.80;99.90;;;;;;5035571;28;20206;-78
2021/10/22 05:23:45;;;;;;;9.63;5.95;;;5.80;99.90;;;;;;5041122;28;20210;-78
2021/10/22 05:26:12;;;;;;;11.40;6.95;;;5.80;99.90;;;;;;5041891;28;20280;-77
2021/10/22 05:28:39;;;;;;;8.57;6.35;;;5.80;99.90;;;;;;5042960;28;20213;-77
2021/10/22 05:31:05;;;;;;;14.95;6.32;;;5.80;99.90;;;;;;5042860;28;20212;-77
2021/10/22 05:33:32;;;;;;;7.60;5.20;;;5.70;99.90;;;;;;5044328;28;20296;-77
2021/10/22 05:35:59;;;;;;;12.52;6.50;;;5.70;99.90;;;;;;5035470;28;20210;-77
2021/10/22 05:38:28;;;;;;;9.43;6.18;;;5.70;99.90;;;;;;5034925;28;20206;-77
2021/10/22 05:40:55;;;;;;;14.43;6.00;;;5.70;99.90;;;;;;5035402;28;20241;-77
2021/10/22 05:43:22;;;;;;;10.02;6.20;;;5.70;99.90;;;;;;5037112;28;20212;-77
2021/10/22 05:45:49;;;;;;;9.45;6.18;;;5.60;99.90;;;;;;5036973;28;20233;-77
2021/10/22 05:48:16;;;;;;;10.75;7.30;;;5.70;99.90;;;;;;5036524;28;20561;-77
2021/10/22 05:50:43;;;;;;;13.10;6.50;;;5.70;99.90;;;;;;5037033;28;20261;-77
2021/10/22 05:53:10;;;;;;;9.45;6.18;;;5.70;99.90;;;;;;5045626;28;20211;-77
2021/10/22 05:55:39;;;;;;;10.68;7.20;;;5.70;99.90;;;;;;5053581;28;20206;-77
2021/10/22 05:58:06;;;;;;;11.70;8.38;;;5.70;99.90;;;;;;5052478;28;20563;-78
2021/10/22 06:00:34;;;;;;;13.50;7.95;;;5.70;99.90;;;;;;5043218;28;20236;-78
2021/10/22 06:03:01;;;;;;;14.00;9.25;;;5.70;99.90;;;;;;5038839;28;20206;-78
2021/10/22 06:05:28;;;;;;;20.85;8.63;;;5.80;99.90;;;;;;5036603;28;20569;-78
2021/10/22 06:07:55;;;;;;;18.58;9.88;;;5.90;99.90;;;;;;5034934;28;20607;-79
2021/10/22 06:10:22;;;;;;;27.05;12.85;;;5.90;99.90;;;;;;5035901;28;20226;-77
2021/10/22 06:12:50;;;;;;;20.27;11.80;;;6.00;99.90;;;;;;5035986;28;20218;-78
2021/10/22 06:15:17;;;;;;;21.98;12.55;;;6.00;99.90;;;;;;5040190;28;20209;-76
2021/10/22 06:17:44;;;;;;;20.67;11.93;;;5.90;99.90;;;;;;5037826;28;20217;-76
2021/10/22 06:20:14;;;;;;;19.63;11.30;;;6.00;99.90;;;;;;5035615;28;20225;-76
2021/10/22 06:25:35;;;;;;;17.20;10.68;;;6.00;99.90;;;;;;5035091;28;20638;-76
2021/10/22 06:28:04;;;;;;;17.02;12.30;;;6.00;99.90;;;;;;5034328;28;20260;-76
2021/10/22 06:30:31;;;;;;;23.48;13.20;;;6.00;99.90;;;;;;5043636;28;20229;-77
2021/10/22 06:32:57;;;;;;;19.00;11.68;;;6.10;99.90;;;;;;5056185;28;20652;-77
2021/10/22 06:35:24;;;;;;;21.17;13.18;;;6.10;99.90;;;;;;5041190;28;20244;-76
2021/10/22 06:37:51;;;;;;;22.20;13.85;;;6.10;99.90;;;;;;5037039;28;20206;-77
2021/10/22 06:40:18;;;;;;;25.00;13.55;;;6.10;99.90;;;;;;5037986;28;20225;-76
2021/10/22 06:42:45;;;;;;;28.13;14.63;;;6.10;99.90;;;;;;5038262;28;20669;-77
2021/10/22 06:45:13;;;;;;;22.63;13.38;;;6.10;99.90;;;;;;5039477;28;20745;-78
2021/10/22 06:47:40;;;;;;;28.10;14.88;;;6.10;99.90;;;;;;5037513;28;20206;-76
2021/10/22 06:50:08;;;;;;;26.75;14.45;;;6.10;99.90;;;;;;5047651;28;20272;-77
2021/10/22 06:52:35;;;;;;;23.70;14.05;;;6.10;99.90;;;;;;5060178;28;20211;-76
2021/10/22 06:55:03;;;;;;;26.70;13.90;;;6.10;99.90;;;;;;5042988;28;20206;-76
2021/10/22 06:57:29;;;;;;;28.23;14.60;;;6.10;99.90;;;;;;5051684;28;20232;-77
2021/10/22 06:59:56;;;;;;;23.35;13.82;;;6.20;99.90;;;;;;5056319;28;20216;-76
2021/10/22 07:02:24;;;;;;;24.83;13.90;;;6.30;99.90;;;;;;5055558;28;20213;-78
2021/10/22 07:04:52;;;;;;;24.00;14.00;;;6.40;99.90;;;;;;5055470;28;20221;-77
2021/10/22 07:07:19;;;;;;;23.25;13.50;;;6.40;99.90;;;;;;5043289;28;20317;-77
2021/10/22 07:09:47;;;;;;;22.10;12.45;;;6.40;99.90;;;;;;5045647;28;20229;-77
2021/10/22 07:12:15;;;;;;;28.17;13.90;;;6.50;99.90;;;;;;5055850;28;20199;-78
2021/10/22 07:14:49;;;;;;;24.27;13.88;;;6.50;99.90;;;;;;5046626;28;20182;-77
2021/10/22 07:17:16;;;;;;;22.63;12.57;;;6.40;99.90;;;;;;5055540;28;20275;-78
2021/10/22 07:19:44;;;;;;;21.73;11.63;;;6.50;99.90;;;;;;5057585;28;20206;-76
2021/10/22 07:22:14;;;;;;;24.45;12.43;;;6.50;99.90;;;;;;5055624;28;20269;-77
2021/10/22 07:24:41;;;;;;;20.42;11.85;;;6.50;99.90;;;;;;5044374;28;20237;-76
2021/10/22 07:27:08;;;;;;;23.98;12.18;;;6.60;99.90;;;;;;5039367;28;20229;-78
2021/10/22 07:29:35;;;;;;;19.95;12.88;;;6.70;99.90;;;;;;5032225;28;20663;-75
2021/10/22 07:32:02;;;;;;;23.17;13.43;;;6.70;99.90;;;;;;5035543;28;20666;-75
2021/10/22 07:34:29;;;;;;;17.10;10.77;;;6.80;99.90;;;;;;5043279;28;20309;-76
2021/10/22 07:36:57;;;;;;;18.27;11.00;;;6.80;99.90;;;;;;5038664;28;20210;-75
2021/10/22 07:39:25;;;;;;;17.77;11.13;;;6.90;99.90;;;;;;5037038;28;20230;-75
2021/10/22 07:41:52;;;;;;;20.50;12.02;;;6.90;99.90;;;;;;5037580;28;20308;-74
2021/10/22 07:44:19;;;;;;;17.20;10.13;;;6.90;99.90;;;;;;5037350;28;20203;-73
2021/10/22 07:46:46;;;;;;;20.65;11.95;;;6.90;99.90;;;;;;5037456;28;20218;-75
2021/10/22 07:49:14;;;;;;;16.83;10.90;;;7.00;99.90;;;;;;5036105;28;20744;-76
2021/10/22 07:51:41;;;;;;;16.70;10.57;;;7.00;99.90;;;;;;5037618;28;20297;-75
2021/10/22 07:54:10;;;;;;;20.52;10.70;;;7.00;99.90;;;;;;5037119;28;20229;-75
2021/10/22 07:56:37;;;;;;;25.67;11.63;;;6.90;99.90;;;;;;5038102;28;20253;-74
2021/10/22 07:59:05;;;;;;;15.77;10.20;;;7.00;99.90;;;;;;5038173;28;20663;-75
2021/10/22 08:01:32;;;;;;;15.40;10.68;;;7.10;99.90;;;;;;5037727;28;20213;-74
2021/10/22 08:03:59;;;;;;;14.45;9.70;;;7.20;99.90;;;;;;5037756;28;20705;-76
2021/10/22 08:06:26;;;;;;;17.40;10.52;;;7.30;99.90;;;;;;5039013;28;20235;-75
2021/10/22 08:08:53;;;;;;;16.80;9.43;;;7.30;99.60;;;;;;5037947;28;20290;-76
2021/10/22 08:11:21;;;;;;;15.98;10.23;;;7.30;99.50;;;;;;5037082;28;20543;-74
2021/10/22 08:13:49;;;;;;;13.23;9.63;;;7.50;98.50;;;;;;5036458;28;20200;-75
2021/10/22 08:16:16;;;;;;;17.55;9.73;;;7.50;97.60;;;;;;5036254;28;20209;-75
2021/10/22 08:18:43;;;;;;;16.83;10.13;;;7.60;97.20;;;;;;5036652;28;20321;-75
2021/10/22 08:21:19;;;;;;;15.63;10.43;;;7.50;96.20;;;;;;5036590;28;20383;-75
2021/10/22 08:23:47;;;;;;;16.45;9.27;;;7.40;95.20;;;;;;5036728;28;20198;-76
2021/10/22 08:26:15;;;;;;;15.05;9.82;;;7.40;95.00;;;;;;5036263;28;20233;-76
2021/10/22 08:28:45;;;;;;;19.48;10.80;;;7.30;95.00;;;;;;5045515;28;20374;-75
2021/10/22 08:31:12;;;;;;;17.52;11.10;;;7.20;95.10;;;;;;5044090;28;20210;-74
2021/10/22 08:33:39;;;;;;;19.33;11.70;;;7.20;95.40;;;;;;5046074;28;20211;-74
2021/10/22 08:36:07;;;;;;;17.67;9.75;;;7.20;95.90;;;;;;5045414;28;20206;-74
2021/10/22 08:38:34;;;;;;;16.05;10.35;;;7.20;95.60;;;;;;5046505;28;20243;-75
2021/10/22 08:41:03;;;;;;;14.95;9.82;;;7.10;95.20;;;;;;5042839;28;20223;-76
2021/10/22 08:43:31;;;;;;;15.32;10.23;;;7.20;95.70;;;;;;5036175;28;20229;-74
2021/10/22 08:46:00;;;;;;;17.40;10.40;;;7.40;94.30;;;;;;5035423;28;20664;-74
2021/10/22 08:48:29;;;;;;;16.15;10.45;;;7.40;93.10;;;;;;5040297;28;20294;-74
2021/10/22 08:50:57;;;;;;;16.42;10.30;;;7.50;92.60;;;;;;5035681;28;20300;-75
2021/10/22 08:53:24;;;;;;;17.98;9.60;;;7.60;91.30;;;;;;5034937;28;20214;-75
2021/10/22 08:55:51;;;;;;;16.58;10.25;;;7.80;90.80;;;;;;5038993;28;20203;-75
2021/10/22 08:58:19;;;;;;;12.05;8.90;;;7.90;88.10;;;;;;5054973;28;20214;-75
2021/10/22 09:00:47;;;;;;;17.00;10.45;;;8.00;85.70;;;;;;5015920;28;20259;-74
2021/10/22 09:03:18;;;;;;;13.85;9.90;;;8.10;84.00;;;;;;5016265;28;20664;-75
2021/10/22 09:05:57;;;;;;;18.27;9.93;;;8.20;83.80;;;;;;5036217;28;20405;-75
2021/10/22 09:08:29;;;;;;;16.88;10.07;;;8.20;81.60;;;;;;5035834;28;20214;-75
2021/10/22 09:10:56;;;;;;;12.63;9.63;;;8.30;82.60;;;;;;5034451;28;20330;-75
2021/10/22 09:13:28;;;;;;;17.20;9.20;;;8.30;80.40;;;;;;5034795;28;20203;-75
2021/10/22 09:15:56;;;;;;;23.17;10.63;;;8.10;80.10;;;;;;5035165;28;20207;-75
2021/10/22 09:18:28;;;;;;;17.45;9.15;;;8.00;82.70;;;;;;5042553;28;20654;-74
2021/10/22 09:20:58;;;;;;;17.55;10.48;;;7.90;83.10;;;;;;5049981;28;20223;-75
2021/10/22 09:23:27;;;;;;;16.17;10.07;;;7.80;82.70;;;;;;5036044;28;20590;-75
2021/10/22 09:25:54;;;;;;;15.30;8.55;;;7.80;82.60;;;;;;5044967;28;20207;-76
2021/10/22 09:28:28;;;;;;;17.60;9.82;;;7.80;81.30;;;;;;5035810;28;20306;-75
2021/10/22 09:30:55;;;;;;;13.00;8.70;;;7.90;80.80;;;;;;5035663;28;20223;-74
2021/10/22 09:33:22;;;;;;;16.35;9.80;;;8.10;80.00;;;;;;5033951;28;20241;-74
2021/10/22 09:36:10;;;;;;;12.88;8.38;;;8.30;78.70;;;;;;5037688;28;20222;-74
2021/10/22 09:38:37;;;;;;;17.02;9.15;;;8.50;77.90;;;;;;5039571;28;20544;-74
2021/10/22 09:41:06;;;;;;;15.23;8.38;;;8.50;76.00;;;;;;5031492;28;20213;-75
2021/10/22 09:43:35;;;;;;;18.77;9.48;;;8.30;76.50;;;;;;5032856;28;20302;-74
2021/10/22 09:46:11;;;;;;;20.60;9.00;;;8.20;78.20;;;;;;5032298;28;20561;-74
2021/10/22 09:48:41;;;;;;;12.30;9.38;;;8.30;79.50;;;;;;5031363;28;20257;-74
2021/10/22 09:51:24;;;;;;;15.00;8.35;;;8.30;78.80;;;;;;5033012;28;20210;-75
2021/10/22 09:53:51;;;;;;;12.88;6.97;;;8.40;77.80;;;;;;5034210;28;20207;-75
2021/10/22 09:56:21;;;;;;;14.70;7.63;;;8.40;77.20;;;;;;5034201;28;20705;-75
2021/10/22 09:58:55;;;;;;;12.07;7.40;;;8.40;75.90;;;;;;5033594;28;20246;-75
2021/10/22 10:01:28;;;;;;;13.57;7.20;;;8.30;77.70;;;;;;5033611;28;20210;-75
2021/10/22 10:03:58;;;;;;;13.98;7.05;;;8.30;77.30;;;;;;5034363;28;20215;-75
2021/10/22 10:06:26;;;;;;;13.30;7.07;;;8.50;77.70;;;;;;5034156;28;20313;-75
2021/10/22 10:08:53;;;;;;;12.75;6.30;;;8.60;76.00;;;;;;5039922;28;20222;-74
2021/10/22 10:11:20;;;;;;;12.48;6.10;;;8.70;76.10;;;;;;5050542;28;20214;-76
2021/10/22 10:13:48;;;;;;;14.70;5.63;;;8.90;73.40;;;;;;5049025;28;20274;-77
2021/10/22 10:16:17;;;;;;;8.48;5.05;;;9.10;70.50;;;;;;5048150;28;20217;-76
2021/10/22 10:18:47;;;;;;;11.77;5.80;;;9.30;68.50;;;;;;5018481;28;20218;-78
2021/10/22 10:21:18;;;;;;;15.40;5.35;;;9.50;68.10;;;;;;5020194;28;20227;-75
2021/10/22 10:23:47;;;;;;;9.38;5.25;;;9.70;67.00;;;;;;5039052;28;20207;-76
2021/10/22 10:26:30;;;;;;;12.07;6.00;;;9.80;66.70;;;;;;5036436;28;20302;-75
2021/10/22 10:28:58;;;;;;;11.00;5.38;;;9.90;66.40;;;;;;5032771;28;20215;-75
2021/10/22 10:31:41;;;;;;;10.02;5.35;;;9.90;66.40;;;;;;5035459;28;20213;-74
2021/10/22 10:34:36;;;;;;;14.55;6.13;;;9.90;65.80;;;;;;5036078;28;20230;-75
2021/10/22 10:37:04;;;;;;;9.90;4.93;;;9.60;65.60;;;;;;5038767;28;20203;-74
2021/10/22 10:39:58;;;;;;;12.63;4.90;;;9.50;67.00;;;;;;5038839;28;20255;-74
2021/10/22 10:42:27;;;;;;;13.52;4.75;;;9.70;65.40;;;;;;5033915;28;20253;-75
2021/10/22 10:44:55;;;;;;;13.82;4.75;;;10.00;63.10;;;;;;5035468;28;20208;-75
2021/10/22 10:47:43;;;;;;;9.90;3.90;;;10.20;62.20;;;;;;5033928;28;20224;-75
2021/10/22 10:50:12;;;;;;;10.02;4.22;;;10.30;62.00;;;;;;5042675;28;20763;-75
2021/10/22 10:52:58;;;;;;;11.95;4.25;;;10.30;59.80;;;;;;5042888;28;20235;-76
2021/10/22 10:55:30;;;;;;;6.90;4.00;;;10.30;59.00;;;;;;5032236;28;20200;-75
2021/10/22 10:58:02;;;;;;;11.10;3.50;;;10.20;58.90;;;;;;5031040;28;20679;-75
2021/10/22 11:00:32;;;;;;;10.60;4.13;;;10.10;58.80;;;;;;5013744;28;20315;-76
2021/10/22 11:03:43;;;;;;;7.97;3.60;;;10.20;57.80;;;;;;5022451;28;20204;-75
2021/10/22 11:06:14;;;;;;;9.45;3.80;;;10.20;57.00;;;;;;5015711;28;20667;-75
2021/10/22 11:08:51;;;;;;;9.65;2.83;;;10.30;57.20;;;;;;5029281;28;20628;-75
2021/10/22 11:11:34;;;;;;;12.25;3.55;;;10.40;54.40;;;;;;5028661;28;20199;-75
2021/10/22 11:14:18;;;;;;;11.10;2.47;;;10.40;53.30;;;;;;5024693;28;20215;-75
2021/10/22 11:16:49;;;;;;;7.28;2.40;;;10.40;53.20;;;;;;5025472;28;20237;-76
2021/10/22 11:19:19;;;;;;;10.65;2.97;;;10.40;51.40;;;;;;5037238;28;20241;-75
2021/10/22 11:21:48;;;;;;;5.18;2.47;;;10.40;51.90;;;;;;5039899;28;20209;-75
2021/10/22 11:24:18;;;;;;;5.28;2.70;;;10.50;49.70;;;;;;5030915;28;20689;-74
2021/10/22 11:26:54;;;;;;;7.82;2.85;;;10.50;49.70;;;;;;5030581;28;20244;-74
2021/10/22 11:29:23;;;;;;;5.53;2.53;;;10.60;49.80;;;;;;5030615;28;20227;-74
2021/10/22 11:31:52;;;;;;;8.82;2.90;;;10.60;47.80;;;;;;5030820;28;20231;-75
2021/10/22 11:34:21;;;;;;;7.80;2.20;;;10.70;48.30;;;;;;5031300;28;20676;-75
2021/10/22 11:36:51;;;;;;;9.13;2.70;;;10.70;48.10;;;;;;5032509;28;20212;-75
2021/10/22 11:39:21;;;;;;;5.32;2.97;;;10.90;47.90;;;;;;5035685;28;20683;-75
2021/10/22 11:42:11;;;;;;;5.97;2.40;;;11.00;46.50;;;;;;5035768;28;20215;-76
2021/10/22 11:44:39;;;;;;;7.80;2.72;;;10.90;44.80;;;;;;5033990;28;20213;-75
2021/10/22 11:47:08;;;;;;;5.93;2.20;;;11.00;45.30;;;;;;5032195;28;20231;-74
2021/10/22 11:49:37;;;;;;;6.32;2.58;;;10.90;45.20;;;;;;5031941;28;20779;-75
2021/10/22 11:52:05;;;;;;;10.23;3.33;;;11.00;45.90;;;;;;5032588;28;20213;-76
2021/10/22 11:54:38;;;;;;;4.15;2.10;;;11.10;45.40;;;;;;5032671;28;20259;-75
2021/10/22 11:57:09;;;;;;;6.82;2.30;;;11.30;44.20;;;;;;5032291;28;20211;-75
2021/10/22 11:59:43;;;;;;;6.70;2.15;;;11.30;44.00;;;;;;5031444;28;20319;-75
2021/10/22 12:02:10;;;;;;;8.82;2.20;;;11.40;43.10;;;;;;5032156;28;20216;-76
2021/10/22 12:04:37;;;;;;;6.20;1.88;;;11.40;42.80;;;;;;5034116;28;20259;-76
2021/10/22 12:07:06;;;;;;;12.43;2.47;;;11.40;41.70;;;;;;5035667;28;20234;-75
2021/10/22 12:09:38;;;;;;;5.28;1.70;;;11.40;41.70;;;;;;5035629;28;20779;-76
2021/10/22 12:12:12;;;;;;;8.18;2.50;;;11.40;42.40;;;;;;5035820;28;20198;-75
2021/10/22 12:14:42;;;;;;;6.97;2.30;;;11.40;41.60;;;;;;5036354;28;20251;-75
2021/10/22 12:17:15;;;;;;;8.32;1.90;;;11.60;42.20;;;;;;5035600;28;20337;-76
2021/10/22 12:19:44;;;;;;;5.00;2.00;;;11.70;41.10;;;;;;5035707;28;20225;-74
2021/10/22 12:22:12;;;;;;;4.90;2.03;;;11.80;41.20;;;;;;5035715;28;20202;-75
2021/10/22 12:24:42;;;;;;;6.03;2.20;;;11.80;41.20;;;;;;5035985;28;20205;-76
2021/10/22 12:27:11;;;;;;;6.50;2.17;;;11.80;41.20;;;;;;5035839;28;20322;-76
2021/10/22 12:30:04;;;;;;;6.32;2.20;;;11.70;41.10;;;;;;5035523;28;20243;-75
2021/10/22 12:32:40;;;;;;;5.60;2.42;;;11.70;41.10;;;;;;5026162;28;20578;-75
2021/10/22 12:35:18;;;;;;;6.88;2.40;;;11.80;41.80;;;;;;5035840;28;20206;-76
2021/10/22 12:37:47;;;;;;;7.57;2.03;;;11.80;41.20;;;;;;5035419;28;20191;-75
2021/10/22 12:40:23;;;;;;;5.10;2.10;;;11.90;41.70;;;;;;5035550;28;20266;-76
2021/10/22 12:43:23;;;;;;;6.35;2.05;;;12.00;41.40;;;;;;5035528;28;20218;-76
2021/10/22 12:46:03;;;;;;;6.15;2.35;;;12.10;41.50;;;;;;5035628;28;20248;-76
2021/10/22 12:48:32;;;;;;;7.72;2.25;;;12.10;41.50;;;;;;5036605;28;20352;-76
2021/10/22 12:51:07;;;;;;;8.25;2.40;;;12.10;42.20;;;;;;5036041;28;20573;-77
2021/10/22 12:53:36;;;;;;;6.05;2.15;;;12.00;41.40;;;;;;5036062;28;20234;-76
2021/10/22 12:56:07;;;;;;;3.60;2.53;;;11.90;41.30;;;;;;5052789;28;20206;-77
2021/10/22 12:58:37;;;;;;;5.30;2.05;;;11.90;41.30;;;;;;5054594;28;20271;-76
2021/10/22 13:01:14;;;;;;;4.57;1.95;;;11.90;41.30;;;;;;5034997;28;20207;-75
2021/10/22 13:03:43;;;;;;;5.32;2.20;;;12.10;41.50;;;;;;5039327;28;20212;-75